createdAt,value
2019-04-06T00:00:42.608Z,21.70
2019-04-06T00:03:52.000Z,21.60
2019-04-06T00:06:59.783Z,24.57
2019-04-06T00:10:08.641Z,21.60
2019-04-06T00:13:16.140Z,25.53
2019-04-06T00:16:23.539Z,21.37
2019-04-06T00:19:31.893Z,22.70
2019-04-06T00:22:40.185Z,21.57
2019-04-06T00:25:47.468Z,23.67
2019-04-06T00:28:54.949Z,23.70
2019-04-06T00:32:13.161Z,23.80
2019-04-06T00:35:20.881Z,20.43
2019-04-06T00:38:28.357Z,19.97
2019-04-06T00:41:35.925Z,22.87
2019-04-06T00:44:43.242Z,24.80
2019-04-06T00:47:50.648Z,23.43
2019-04-06T00:50:58.408Z,23.53
2019-04-06T00:54:05.979Z,21.60
2019-04-06T00:57:13.391Z,24.23
2019-04-06T01:00:20.972Z,21.63
2019-04-06T01:03:28.252Z,21.10
2019-04-06T01:06:35.974Z,23.17
2019-04-06T01:09:43.488Z,22.20
2019-04-06T01:12:50.920Z,23.17
2019-04-06T01:15:58.867Z,21.67
2019-04-06T01:19:06.669Z,21.73
2019-04-06T01:22:14.094Z,23.87
2019-04-06T01:25:21.972Z,23.90
2019-04-06T01:28:29.476Z,22.83
2019-04-06T01:31:37.322Z,22.33
2019-04-06T01:34:44.746Z,22.60
2019-04-06T01:37:52.630Z,23.40
2019-04-06T01:41:00.479Z,23.90
2019-04-06T01:44:07.763Z,21.23
2019-04-06T01:47:15.448Z,23.20
2019-04-06T01:50:23.085Z,21.33
2019-04-06T01:53:30.643Z,21.60
2019-04-06T01:56:37.924Z,22.00
2019-04-06T01:59:45.519Z,24.57
2019-04-06T02:02:53.363Z,22.37
2019-04-06T02:06:01.787Z,20.57
2019-04-06T02:09:09.588Z,21.70
2019-04-06T02:12:16.984Z,23.00
2019-04-06T02:15:24.821Z,22.73
2019-04-06T02:18:32.081Z,19.57
2019-04-06T02:21:39.459Z,23.60
2019-04-06T02:24:46.739Z,21.80
2019-04-06T02:27:54.231Z,21.50
2019-04-06T02:31:06.543Z,20.37
2019-04-06T02:34:28.515Z,22.40
2019-04-06T02:38:00.708Z,22.97
2019-04-06T02:41:13.524Z,20.83
2019-04-06T02:44:20.901Z,23.63
2019-04-06T02:47:28.443Z,21.27
2019-04-06T02:50:36.465Z,20.07
2019-04-06T02:53:43.990Z,22.37
2019-04-06T02:56:51.366Z,26.33
2019-04-06T02:59:59.151Z,25.57
2019-04-06T03:03:06.756Z,21.67
2019-04-06T03:06:14.565Z,22.63
2019-04-06T03:09:22.234Z,24.47
2019-04-06T03:12:30.538Z,22.80
2019-04-06T03:15:39.177Z,21.87
2019-04-06T03:18:47.705Z,23.20
2019-04-06T03:21:55.089Z,23.87
2019-04-06T03:25:03.141Z,27.03
2019-04-06T03:28:12.891Z,20.80
2019-04-06T03:31:25.213Z,23.80
2019-04-06T03:34:29.983Z,22.13
2019-04-06T03:37:38.577Z,26.23
2019-04-06T03:40:45.947Z,23.80
2019-04-06T03:43:53.584Z,26.10
2019-04-06T03:47:00.786Z,26.40
2019-04-06T03:50:09.111Z,22.27
2019-04-06T03:53:16.621Z,25.43
2019-04-06T03:56:24.351Z,23.27
2019-04-06T03:59:31.780Z,23.87
2019-04-06T04:02:39.007Z,29.57
2019-04-06T04:05:46.186Z,22.73
2019-04-06T04:08:53.827Z,22.90
2019-04-06T04:12:01.732Z,22.40
2019-04-06T04:15:09.293Z,22.47
2019-04-06T04:18:16.480Z,24.57
2019-04-06T04:21:24.000Z,25.83
2019-04-06T04:24:31.768Z,27.90
2019-04-06T04:27:40.751Z,26.90
2019-04-06T04:30:48.457Z,25.83
2019-04-06T04:33:56.041Z,58.77
2019-04-06T04:37:03.859Z,27.30
2019-04-06T04:40:11.584Z,24.20
2019-04-06T04:43:19.156Z,21.93
2019-04-06T04:46:26.777Z,22.57
2019-04-06T04:49:34.853Z,25.70
2019-04-06T04:52:42.158Z,21.10
2019-04-06T04:55:50.617Z,24.53
2019-04-06T04:58:58.762Z,23.27
2019-04-06T05:02:06.688Z,27.70
2019-04-06T05:05:14.408Z,26.20
2019-04-06T05:08:21.722Z,24.50
2019-04-06T05:11:29.609Z,21.37
2019-04-06T05:14:58.582Z,21.00
2019-04-06T05:18:05.919Z,25.77
2019-04-06T05:21:13.588Z,27.77
2019-04-06T05:24:21.997Z,25.20
2019-04-06T05:27:29.553Z,25.37
2019-04-06T05:30:36.908Z,23.03
2019-04-06T05:33:44.695Z,26.67
2019-04-06T05:36:52.118Z,24.43
2019-04-06T05:39:59.600Z,27.13
2019-04-06T05:43:06.765Z,23.10
2019-04-06T05:46:14.089Z,22.63
2019-04-06T05:49:22.207Z,22.50
2019-04-06T05:52:30.769Z,26.10
2019-04-06T05:55:38.594Z,24.93
2019-04-06T05:58:46.817Z,24.43
2019-04-06T06:01:54.731Z,25.83
2019-04-06T06:05:02.729Z,22.47
2019-04-06T06:08:10.327Z,24.60
2019-04-06T06:11:18.354Z,26.47
2019-04-06T06:14:26.995Z,23.67
2019-04-06T06:17:34.951Z,24.20
2019-04-06T06:20:42.632Z,27.97
2019-04-06T06:23:50.204Z,27.27
2019-04-06T06:26:58.105Z,23.67
2019-04-06T06:30:06.761Z,28.37
2019-04-06T06:33:14.822Z,28.23
2019-04-06T06:36:22.331Z,42.40
2019-04-06T06:39:29.856Z,32.17
2019-04-06T06:42:37.334Z,31.43
2019-04-06T06:45:44.802Z,29.00
2019-04-06T06:48:53.457Z,27.83
2019-04-06T06:52:01.442Z,28.63
2019-04-06T06:55:09.248Z,32.33
2019-04-06T06:58:25.362Z,32.27
2019-04-06T07:01:27.334Z,37.50
2019-04-06T07:04:34.680Z,26.13
2019-04-06T07:07:42.022Z,30.87
2019-04-06T07:10:49.616Z,31.33
2019-04-06T07:13:58.276Z,37.03
2019-04-06T07:17:05.843Z,32.40
2019-04-06T07:20:13.899Z,32.73
2019-04-06T07:23:21.300Z,34.67
2019-04-06T07:26:29.091Z,34.40
2019-04-06T07:29:36.257Z,33.13
2019-04-06T07:32:43.887Z,29.03
2019-04-06T07:35:51.982Z,35.73
2019-04-06T07:38:59.658Z,31.17
2019-04-06T07:42:07.074Z,30.70
2019-04-06T07:45:14.694Z,29.87
2019-04-06T07:48:22.625Z,29.63
2019-04-06T07:51:30.067Z,30.47
2019-04-06T07:54:37.792Z,34.73
2019-04-06T07:57:45.273Z,33.93
2019-04-06T08:00:52.781Z,35.43
2019-04-06T08:04:00.209Z,35.07
2019-04-06T08:07:07.897Z,34.10
2019-04-06T08:10:15.933Z,37.03
2019-04-06T08:13:24.119Z,30.57
2019-04-06T08:16:32.692Z,31.57
2019-04-06T08:19:40.407Z,35.37
2019-04-06T08:22:48.547Z,30.13
2019-04-06T08:25:55.849Z,31.70
2019-04-06T08:29:03.596Z,29.20
2019-04-06T08:32:11.306Z,31.23
2019-04-06T08:35:25.110Z,33.40
2019-04-06T08:38:29.353Z,26.10
2019-04-06T08:41:37.182Z,30.27
2019-04-06T08:44:45.010Z,31.17
2019-04-06T08:47:52.767Z,34.20
2019-04-06T08:51:00.301Z,28.57
2019-04-06T08:54:07.549Z,30.13
2019-04-06T08:57:14.768Z,28.47
2019-04-06T09:00:22.253Z,29.20
2019-04-06T09:03:29.848Z,31.93
2019-04-06T09:06:37.033Z,27.03
2019-04-06T09:09:44.892Z,28.60
2019-04-06T09:12:52.587Z,30.87
2019-04-06T09:16:00.121Z,27.40
2019-04-06T09:19:07.503Z,26.83
2019-04-06T09:22:15.149Z,28.90
2019-04-06T09:25:22.535Z,30.00
2019-04-06T09:28:29.929Z,30.97
2019-04-06T09:31:37.137Z,32.70
2019-04-06T09:34:44.862Z,29.37
2019-04-06T09:37:52.242Z,26.83
2019-04-06T09:40:59.471Z,29.57
2019-04-06T09:44:11.180Z,27.70
2019-04-06T09:47:28.718Z,26.07
2019-04-06T09:51:11.057Z,27.87
2019-04-06T09:54:30.131Z,25.73
2019-04-06T09:57:48.399Z,26.13
2019-04-06T10:01:14.845Z,22.97
2019-04-06T10:04:47.557Z,22.73
2019-04-06T10:08:15.336Z,25.50
2019-04-06T10:11:31.536Z,23.50
2019-04-06T10:15:01.503Z,24.20
2019-04-06T10:18:24.572Z,21.27
2019-04-06T10:21:51.785Z,23.77
2019-04-06T10:25:10.977Z,25.33
2019-04-06T10:28:36.313Z,22.97
2019-04-06T10:32:08.762Z,22.27
2019-04-06T10:35:28.923Z,22.80
2019-04-06T10:39:04.808Z,25.63
2019-04-06T10:42:28.987Z,21.43
2019-04-06T10:45:47.028Z,26.57
2019-04-06T10:49:05.704Z,21.33
2019-04-06T10:52:23.944Z,19.97
2019-04-06T10:55:39.773Z,23.57
2019-04-06T10:59:08.339Z,23.33
2019-04-06T11:02:33.989Z,25.30
2019-04-06T11:05:55.591Z,19.37
2019-04-06T11:09:27.362Z,18.17
2019-04-06T11:12:53.219Z,18.33
2019-04-06T11:16:09.497Z,21.43
2019-04-06T11:19:25.794Z,27.57
2019-04-06T11:22:51.100Z,23.50
2019-04-06T11:26:21.157Z,19.97
2019-04-06T11:29:43.233Z,21.30
2019-04-06T11:33:09.003Z,22.17
2019-04-06T11:36:51.409Z,22.93
2019-04-06T11:40:17.062Z,15.20
2019-04-06T11:43:43.249Z,23.00
2019-04-06T11:46:57.688Z,19.37
2019-04-06T11:50:18.259Z,18.40
2019-04-06T11:53:51.294Z,18.73
2019-04-06T11:57:25.224Z,18.63
2019-04-06T12:00:50.954Z,20.90
2019-04-06T12:04:17.968Z,17.83
2019-04-06T12:07:35.638Z,19.97
2019-04-06T12:10:49.915Z,17.40
2019-04-06T12:14:15.601Z,19.47
2019-04-06T12:17:37.161Z,18.80
2019-04-06T12:21:13.139Z,16.10
2019-04-06T12:24:43.008Z,22.30
2019-04-06T12:28:12.625Z,16.27
2019-04-06T12:31:37.438Z,17.77
2019-04-06T12:34:53.314Z,19.57
2019-04-06T12:38:19.024Z,17.43
2019-04-06T12:41:40.445Z,19.17
2019-04-06T12:45:06.116Z,13.70
2019-04-06T12:48:32.054Z,15.90
2019-04-06T12:51:48.345Z,13.60
2019-04-06T12:55:18.708Z,14.40
2019-04-06T12:59:04.125Z,15.33
2019-04-06T13:02:28.023Z,13.40
2019-04-06T13:06:03.727Z,14.30
2019-04-06T13:09:22.238Z,14.50
2019-04-06T13:12:36.922Z,15.10
2019-04-06T13:16:02.948Z,12.80
2019-04-06T13:19:28.728Z,11.70
2019-04-06T13:22:54.419Z,13.87
2019-04-06T13:26:20.190Z,11.00
2019-04-06T13:29:33.854Z,10.43
2019-04-06T13:32:53.541Z,8.50
2019-04-06T13:36:20.279Z,7.60
2019-04-06T13:39:55.891Z,7.60
2019-04-06T13:43:15.142Z,6.43
2019-04-06T13:46:33.257Z,6.20
2019-04-06T13:50:03.125Z,6.23
2019-04-06T13:53:22.559Z,6.27
2019-04-06T13:56:55.172Z,7.20
2019-04-06T14:00:26.739Z,6.77
2019-04-06T14:04:05.816Z,8.17
2019-04-06T14:07:26.979Z,9.03
2019-04-06T14:11:02.244Z,8.87
2019-04-06T14:14:29.470Z,6.53
2019-04-06T14:17:56.674Z,10.23
2019-04-06T14:21:13.838Z,6.50
2019-04-06T14:24:34.114Z,8.63
2019-04-06T14:28:16.312Z,7.77
2019-04-06T14:31:41.686Z,8.37
2019-04-06T14:35:09.635Z,6.33
2019-04-06T14:38:39.301Z,6.60
2019-04-06T14:42:05.013Z,6.40
2019-04-06T14:45:23.536Z,8.37
2019-04-06T14:48:38.956Z,8.60
2019-04-06T14:52:18.659Z,9.30
2019-04-06T14:55:33.544Z,7.77
2019-04-06T14:58:59.072Z,6.17
2019-04-06T15:02:26.439Z,7.03
2019-04-06T15:05:52.902Z,7.00
2019-04-06T15:09:09.878Z,7.33
2019-04-06T15:12:43.282Z,6.20
2019-04-06T15:16:00.303Z,6.27
2019-04-06T15:19:26.121Z,7.57
2019-04-06T15:22:52.203Z,6.83
2019-04-06T15:26:10.833Z,5.70
2019-04-06T15:29:56.480Z,6.37
2019-04-06T15:33:22.817Z,6.13
2019-04-06T15:36:53.291Z,6.17
2019-04-06T15:40:19.493Z,8.43
2019-04-06T15:43:35.328Z,11.83
2019-04-06T15:47:03.345Z,6.10
2019-04-06T15:50:34.989Z,5.90
2019-04-06T15:54:05.546Z,5.80
2019-04-06T15:57:34.522Z,5.37
2019-04-06T16:01:02.051Z,6.23
2019-04-06T16:04:42.149Z,4.83
2019-04-06T16:08:18.674Z,4.93
2019-04-06T16:11:44.286Z,4.77
2019-04-06T16:15:09.002Z,3.70
2019-04-06T16:18:45.386Z,4.97
2019-04-06T16:21:59.589Z,5.07
2019-04-06T16:25:26.281Z,4.80
2019-04-06T16:28:59.073Z,5.63
2019-04-06T16:32:16.449Z,5.80
2019-04-06T16:35:32.184Z,3.67
2019-04-06T16:38:50.270Z,3.53
2019-04-06T16:42:09.303Z,3.37
2019-04-06T16:45:39.399Z,5.73
2019-04-06T16:48:57.099Z,3.60
2019-04-06T16:52:27.666Z,3.93
2019-04-06T16:55:46.678Z,3.33
2019-04-06T16:59:11.060Z,2.87
2019-04-06T17:02:30.758Z,5.20
2019-04-06T17:05:51.598Z,6.10
2019-04-06T17:09:22.062Z,3.90
2019-04-06T17:12:46.598Z,3.60
2019-04-06T17:16:11.261Z,6.33
2019-04-06T17:19:38.499Z,4.43
2019-04-06T17:22:54.990Z,6.20
2019-04-06T17:26:27.357Z,4.10
2019-04-06T17:29:55.324Z,3.87
2019-04-06T17:33:28.573Z,4.17
2019-04-06T17:36:49.333Z,3.40
2019-04-06T17:40:15.615Z,3.83
2019-04-06T17:43:41.576Z,3.40
2019-04-06T17:46:57.269Z,4.43
2019-04-06T17:50:33.724Z,4.17
2019-04-06T17:53:50.258Z,4.37
2019-04-06T17:57:11.653Z,4.37
2019-04-06T18:00:38.483Z,4.00
2019-04-06T18:04:04.535Z,4.90
2019-04-06T18:07:32.302Z,4.83
2019-04-06T18:11:09.107Z,3.43
2019-04-06T18:14:18.501Z,5.50
2019-04-06T18:17:26.629Z,3.57
2019-04-06T18:20:34.938Z,3.60
2019-04-06T18:23:42.749Z,5.57
2019-04-06T18:26:50.723Z,3.13
2019-04-06T18:29:59.995Z,6.30
2019-04-06T18:33:10.861Z,3.60
2019-04-06T18:36:20.679Z,4.00
2019-04-06T18:39:28.999Z,6.23
2019-04-06T18:42:37.382Z,4.77
2019-04-06T18:45:44.924Z,3.60
2019-04-06T18:48:52.901Z,3.40
2019-04-06T18:52:00.968Z,3.67
2019-04-06T18:55:08.764Z,3.00
2019-04-06T18:58:16.552Z,5.27
2019-04-06T19:01:24.293Z,4.17
2019-04-06T19:04:32.894Z,5.33
2019-04-06T19:07:40.798Z,9.20
2019-04-06T19:10:48.798Z,5.07
2019-04-06T19:13:56.629Z,4.30
2019-04-06T19:17:04.566Z,6.47
2019-04-06T19:20:12.910Z,3.30
2019-04-06T19:23:20.593Z,5.70
2019-04-06T19:26:28.805Z,4.63
2019-04-06T19:29:36.650Z,4.53
2019-04-06T19:32:44.205Z,4.13
2019-04-06T19:35:52.876Z,3.20
2019-04-06T19:39:00.631Z,4.40
2019-04-06T19:42:09.264Z,3.27
2019-04-06T19:45:17.035Z,3.30
2019-04-06T19:48:24.793Z,3.10
2019-04-06T19:51:33.148Z,4.47
2019-04-06T19:54:41.406Z,2.37
2019-04-06T19:57:48.852Z,3.10
2019-04-06T20:00:56.369Z,3.77
2019-04-06T20:04:04.636Z,5.53
2019-04-06T20:07:12.911Z,3.33
2019-04-06T20:10:20.282Z,2.80
2019-04-06T20:13:29.483Z,4.57
2019-04-06T20:16:38.459Z,2.40
2019-04-06T20:19:46.149Z,3.57
2019-04-06T20:22:53.912Z,2.47
2019-04-06T20:26:02.405Z,3.40
2019-04-06T20:29:10.460Z,6.03
2019-04-06T20:32:18.722Z,6.63
2019-04-06T20:35:26.737Z,5.03
2019-04-06T20:38:35.701Z,3.80
2019-04-06T20:41:43.843Z,3.47
2019-04-06T20:44:52.706Z,2.03
2019-04-06T20:48:00.202Z,2.43
2019-04-06T20:51:08.034Z,3.90
2019-04-06T20:57:25.667Z,5.47
2019-04-06T21:00:34.626Z,3.50
2019-04-06T21:03:42.807Z,3.53
2019-04-06T21:06:50.609Z,3.37
2019-04-06T21:09:58.472Z,3.47
2019-04-06T21:13:06.608Z,2.77
2019-04-06T21:16:15.172Z,3.93
2019-04-06T21:19:22.974Z,2.83
2019-04-06T21:22:30.680Z,3.53
2019-04-06T21:25:38.782Z,3.03
2019-04-06T21:28:46.566Z,2.53
2019-04-06T21:31:54.459Z,3.07
2019-04-06T21:35:05.465Z,2.67
2019-04-06T21:38:13.452Z,3.13
2019-04-06T21:41:20.819Z,3.57
2019-04-06T21:44:28.173Z,2.40
2019-04-06T21:47:36.145Z,3.40
2019-04-06T21:50:43.648Z,3.83
2019-04-06T21:53:51.719Z,2.57
2019-04-06T21:56:59.548Z,1.97
2019-04-06T22:00:08.879Z,2.70
2019-04-06T22:03:16.683Z,2.10
2019-04-06T22:06:25.766Z,2.60
2019-04-06T22:09:33.861Z,2.87
2019-04-06T22:12:41.648Z,2.57
2019-04-06T22:15:48.958Z,2.43
2019-04-06T22:18:56.498Z,2.70
2019-04-06T22:22:04.007Z,1.80
2019-04-06T22:25:12.156Z,1.63
2019-04-06T22:28:20.044Z,3.37
2019-04-06T22:31:27.810Z,2.40
2019-04-06T22:34:39.880Z,1.73
2019-04-06T22:37:44.983Z,2.03
2019-04-06T22:40:52.964Z,2.77
2019-04-06T22:44:00.757Z,3.40
2019-04-06T22:47:09.057Z,3.83
2019-04-06T22:50:16.579Z,3.13
2019-04-06T22:53:23.947Z,3.70
2019-04-06T22:56:31.500Z,3.73
2019-04-06T22:59:39.204Z,10.07
2019-04-06T23:02:57.457Z,11.73
2019-04-06T23:06:08.519Z,17.63
2019-04-06T23:09:16.570Z,11.57
2019-04-06T23:12:24.598Z,7.53
2019-04-06T23:15:32.647Z,5.57
2019-04-06T23:18:40.036Z,5.30
2019-04-06T23:21:47.572Z,3.87
2019-04-06T23:24:54.986Z,5.10
2019-04-06T23:28:02.384Z,8.07
2019-04-06T23:31:09.849Z,5.27
2019-04-06T23:34:18.020Z,2.93
2019-04-06T23:37:25.734Z,2.93
2019-04-06T23:40:33.760Z,2.23
2019-04-06T23:43:41.538Z,3.30
2019-04-06T23:46:48.809Z,3.43
2019-04-06T23:49:56.278Z,4.40
2019-04-06T23:53:04.239Z,5.27
2019-04-06T23:56:12.052Z,3.30
2019-04-06T23:59:19.994Z,4.00
